createdAt,value
2018-12-18T00:00:00.959Z,29.90
2018-12-18T00:02:34.369Z,29.67
2018-12-18T00:05:15.814Z,30.23
2018-12-18T00:07:50.118Z,29.72
2018-12-18T00:10:29.430Z,30.80
2018-12-18T00:13:03.025Z,28.35
2018-12-18T00:15:36.407Z,29.32
2018-12-18T00:18:09.935Z,29.60
2018-12-18T00:20:43.466Z,28.38
2018-12-18T00:23:17.018Z,28.83
2018-12-18T00:25:50.565Z,27.62
2018-12-18T00:28:24.066Z,30.65
2018-12-18T00:30:58.028Z,29.75
2018-12-18T00:33:31.742Z,31.10
2018-12-18T00:36:05.374Z,27.90
2018-12-18T00:38:38.743Z,30.02
2018-12-18T00:41:12.410Z,31.02
2018-12-18T00:43:45.913Z,31.35
2018-12-18T00:46:19.571Z,32.05
2018-12-18T00:48:53.147Z,33.08
2018-12-18T00:51:26.843Z,29.63
2018-12-18T00:54:00.571Z,30.88
2018-12-18T00:56:34.034Z,32.00
2018-12-18T00:59:07.510Z,30.92
2018-12-18T01:01:43.016Z,32.45
2018-12-18T01:04:16.589Z,32.03
2018-12-18T01:06:49.984Z,32.63
2018-12-18T01:09:23.933Z,31.80
2018-12-18T01:11:57.373Z,31.73
2018-12-18T01:14:30.784Z,31.00
2018-12-18T01:17:04.310Z,29.98
2018-12-18T01:19:37.770Z,29.95
2018-12-18T01:22:11.253Z,28.80
2018-12-18T01:24:44.810Z,31.33
2018-12-18T01:27:18.179Z,31.30
2018-12-18T01:29:51.525Z,29.50
2018-12-18T01:32:25.170Z,33.08
2018-12-18T01:34:58.465Z,31.42
2018-12-18T01:37:31.782Z,32.40
2018-12-18T01:40:05.301Z,33.23
2018-12-18T01:42:39.905Z,32.35
2018-12-18T01:45:13.341Z,29.82
2018-12-18T01:47:46.735Z,31.17
2018-12-18T01:50:20.009Z,31.27
2018-12-18T01:52:53.273Z,33.10
2018-12-18T01:55:26.710Z,32.33
2018-12-18T01:58:00.117Z,30.77
2018-12-18T02:00:33.525Z,32.60
2018-12-18T02:03:06.982Z,32.40
2018-12-18T02:05:40.467Z,31.87
2018-12-18T02:08:13.757Z,31.65
2018-12-18T02:10:47.398Z,31.70
2018-12-18T02:13:20.813Z,31.77
2018-12-18T02:15:54.279Z,31.68
2018-12-18T02:18:27.956Z,31.60
2018-12-18T02:21:01.649Z,31.75
2018-12-18T02:23:35.102Z,31.17
2018-12-18T02:26:08.711Z,33.30
2018-12-18T02:28:42.254Z,30.80
2018-12-18T02:31:15.697Z,33.25
2018-12-18T02:33:48.970Z,30.92
2018-12-18T02:36:22.268Z,31.45
2018-12-18T02:38:55.778Z,32.25
2018-12-18T02:41:29.417Z,31.80
2018-12-18T02:44:03.030Z,32.30
2018-12-18T02:46:36.337Z,30.48
2018-12-18T02:49:09.951Z,30.32
2018-12-18T02:51:43.385Z,29.95
2018-12-18T02:54:16.879Z,31.23
2018-12-18T02:56:50.349Z,28.75
2018-12-18T02:59:23.776Z,28.02
2018-12-18T03:01:57.367Z,29.55
2018-12-18T03:04:30.694Z,29.35
2018-12-18T03:07:04.274Z,29.60
2018-12-18T03:09:37.609Z,29.55
2018-12-18T03:12:11.070Z,29.23
2018-12-18T03:14:44.390Z,32.03
2018-12-18T03:17:17.915Z,30.02
2018-12-18T03:19:51.506Z,28.42
2018-12-18T03:22:24.961Z,30.80
2018-12-18T03:24:58.472Z,30.12
2018-12-18T03:27:32.090Z,30.55
2018-12-18T03:30:05.567Z,29.50
2018-12-18T03:32:47.206Z,31.85
2018-12-18T03:35:20.969Z,31.00
2018-12-18T03:37:54.481Z,30.95
2018-12-18T03:40:28.029Z,31.27
2018-12-18T03:43:01.706Z,28.90
2018-12-18T03:45:35.281Z,31.17
2018-12-18T03:48:08.786Z,30.00
2018-12-18T03:50:42.332Z,30.85
2018-12-18T03:53:15.774Z,29.40
2018-12-18T03:55:49.537Z,30.27
2018-12-18T03:58:22.894Z,29.98
2018-12-18T04:00:56.093Z,31.05
2018-12-18T04:03:30.494Z,30.50
2018-12-18T04:06:03.978Z,31.05
2018-12-18T04:08:37.574Z,31.20
2018-12-18T04:11:11.032Z,30.15
2018-12-18T04:13:44.440Z,30.77
2018-12-18T04:16:17.841Z,29.75
2018-12-18T04:18:51.337Z,29.37
2018-12-18T04:21:24.526Z,29.12
2018-12-18T04:23:57.808Z,29.67
2018-12-18T04:26:31.290Z,30.27
2018-12-18T04:29:04.737Z,30.25
2018-12-18T04:31:38.158Z,28.45
2018-12-18T04:34:11.526Z,30.17
2018-12-18T04:36:45.093Z,29.98
2018-12-18T04:39:18.485Z,26.82
2018-12-18T04:41:51.954Z,30.65
2018-12-18T04:44:25.416Z,29.57
2018-12-18T04:46:58.730Z,29.92
2018-12-18T04:49:32.389Z,28.70
2018-12-18T04:52:05.766Z,30.57
2018-12-18T04:54:39.463Z,31.37
2018-12-18T04:57:13.161Z,29.23
2018-12-18T04:59:46.778Z,31.20
2018-12-18T05:02:20.561Z,29.02
2018-12-18T05:04:54.159Z,29.35
2018-12-18T05:07:28.199Z,28.45
2018-12-18T05:10:01.875Z,27.85
2018-12-18T05:12:35.571Z,28.45
2018-12-18T05:15:09.180Z,28.57
2018-12-18T05:17:42.697Z,27.87
2018-12-18T05:20:16.101Z,28.83
2018-12-18T05:22:49.899Z,27.73
2018-12-18T05:25:23.601Z,27.55
2018-12-18T05:27:57.408Z,29.35
2018-12-18T05:30:30.917Z,28.05
2018-12-18T05:33:04.617Z,30.05
2018-12-18T05:35:38.212Z,26.52
2018-12-18T05:38:11.614Z,27.05
2018-12-18T05:40:46.030Z,27.90
2018-12-18T05:43:19.512Z,27.52
2018-12-18T05:45:52.924Z,26.42
2018-12-18T05:48:26.429Z,25.82
2018-12-18T05:50:59.822Z,26.90
2018-12-18T05:53:33.426Z,28.00
2018-12-18T05:56:06.930Z,28.10
2018-12-18T05:58:40.506Z,26.73
2018-12-18T06:01:14.438Z,27.85
2018-12-18T06:03:48.033Z,27.77
2018-12-18T06:06:21.621Z,26.73
2018-12-18T06:08:55.325Z,25.12
2018-12-18T06:11:29.046Z,27.25
2018-12-18T06:14:02.863Z,26.80
2018-12-18T06:16:36.498Z,27.10
2018-12-18T06:19:10.237Z,26.20
2018-12-18T06:21:44.062Z,26.52
2018-12-18T06:24:17.780Z,27.37
2018-12-18T06:26:51.362Z,25.80
2018-12-18T06:29:26.080Z,26.20
2018-12-18T06:31:59.680Z,26.30
2018-12-18T06:34:33.456Z,25.70
2018-12-18T06:37:06.999Z,26.07
2018-12-18T06:39:40.714Z,26.23
2018-12-18T06:42:15.444Z,23.95
2018-12-18T06:44:49.025Z,25.62
2018-12-18T06:47:24.076Z,24.07
2018-12-18T06:49:57.778Z,24.77
2018-12-18T06:52:31.274Z,25.27
2018-12-18T06:55:05.184Z,26.50
2018-12-18T06:57:38.765Z,26.10
2018-12-18T07:00:12.393Z,25.92
2018-12-18T07:02:46.089Z,26.80
2018-12-18T07:05:19.775Z,25.92
2018-12-18T07:07:57.335Z,25.70
2018-12-18T07:10:28.761Z,27.90
2018-12-18T07:13:02.402Z,26.33
2018-12-18T07:15:35.814Z,25.55
2018-12-18T07:18:09.290Z,24.65
2018-12-18T07:20:42.625Z,25.62
2018-12-18T07:23:17.007Z,26.07
2018-12-18T07:25:50.407Z,26.68
2018-12-18T07:28:24.030Z,24.87
2018-12-18T07:30:57.518Z,24.37
2018-12-18T07:33:31.070Z,25.80
2018-12-18T07:36:04.707Z,25.25
2018-12-18T07:38:38.272Z,24.95
2018-12-18T07:41:11.891Z,26.50
2018-12-18T07:43:45.286Z,29.05
2018-12-18T07:46:18.750Z,25.95
2018-12-18T07:48:53.696Z,24.50
2018-12-18T07:51:27.233Z,28.30
2018-12-18T07:54:00.806Z,23.50
2018-12-18T07:56:34.186Z,24.12
2018-12-18T07:59:07.689Z,24.02
2018-12-18T08:01:41.427Z,23.90
2018-12-18T08:04:14.875Z,24.30
2018-12-18T08:06:48.073Z,23.05
2018-12-18T08:09:21.405Z,22.95
2018-12-18T08:11:54.774Z,21.33
2018-12-18T08:14:28.197Z,19.82
2018-12-18T08:17:01.737Z,20.92
2018-12-18T08:19:35.194Z,20.97
2018-12-18T08:22:08.675Z,25.23
2018-12-18T08:24:42.186Z,20.52
2018-12-18T08:27:15.764Z,22.82
2018-12-18T08:29:49.093Z,21.00
2018-12-18T08:32:22.485Z,20.65
2018-12-18T08:34:56.043Z,20.90
2018-12-18T08:37:29.534Z,19.17
2018-12-18T08:40:03.113Z,16.70
2018-12-18T08:42:37.732Z,18.85
2018-12-18T08:45:11.297Z,18.98
2018-12-18T08:47:45.142Z,17.55
2018-12-18T08:50:18.730Z,18.75
2018-12-18T08:52:52.026Z,20.23
2018-12-18T08:55:25.650Z,19.55
2018-12-18T08:58:00.297Z,19.05
2018-12-18T09:00:33.562Z,19.12
2018-12-18T09:03:07.153Z,20.40
2018-12-18T09:05:43.383Z,19.73
2018-12-18T09:08:16.116Z,20.12
2018-12-18T09:10:49.637Z,20.23
2018-12-18T09:13:22.954Z,20.68
2018-12-18T09:15:57.462Z,20.12
2018-12-18T09:18:31.032Z,20.20
2018-12-18T09:21:04.838Z,20.57
2018-12-18T09:23:38.251Z,19.30
2018-12-18T09:26:11.736Z,21.68
2018-12-18T09:28:45.176Z,20.68
2018-12-18T09:31:18.680Z,19.73
2018-12-18T09:33:51.917Z,21.48
2018-12-18T09:36:25.237Z,20.15
2018-12-18T09:39:04.581Z,20.60
2018-12-18T09:41:38.857Z,21.62
2018-12-18T09:44:15.450Z,21.50
2018-12-18T09:46:50.946Z,21.48
2018-12-18T09:49:24.726Z,21.62
2018-12-18T09:51:58.127Z,20.40
2018-12-18T09:54:31.453Z,21.52
2018-12-18T09:57:09.492Z,21.30
2018-12-18T09:59:43.222Z,22.02
2018-12-18T10:02:16.669Z,22.30
2018-12-18T10:04:50.053Z,22.75
2018-12-18T10:07:23.459Z,21.02
2018-12-18T10:09:56.829Z,22.27
2018-12-18T10:12:36.161Z,22.17
2018-12-18T10:15:09.559Z,21.82
2018-12-18T10:17:44.320Z,22.98
2018-12-18T10:20:17.872Z,23.22
2018-12-18T10:22:52.438Z,23.05
2018-12-18T10:25:25.921Z,21.65
2018-12-18T10:27:59.357Z,22.93
2018-12-18T10:30:32.802Z,20.77
2018-12-18T10:33:06.705Z,21.05
2018-12-18T10:35:40.147Z,22.20
2018-12-18T10:38:13.631Z,21.40
2018-12-18T10:40:46.939Z,21.15
2018-12-18T10:43:20.585Z,19.95
2018-12-18T10:45:54.187Z,20.95
2018-12-18T10:48:27.750Z,21.52
2018-12-18T10:51:01.298Z,22.65
2018-12-18T10:53:34.922Z,20.17
2018-12-18T10:56:08.374Z,22.60
2018-12-18T10:58:41.766Z,21.82
2018-12-18T11:01:21.261Z,22.02
2018-12-18T11:03:54.854Z,20.75
2018-12-18T11:06:28.154Z,20.97
2018-12-18T11:09:01.867Z,23.45
2018-12-18T11:11:37.147Z,22.70
2018-12-18T11:14:10.654Z,21.70
2018-12-18T11:16:44.037Z,20.85
2018-12-18T11:19:17.715Z,23.00
2018-12-18T11:21:51.277Z,24.95
2018-12-18T11:24:24.864Z,23.92
2018-12-18T11:26:58.508Z,23.92
2018-12-18T11:29:31.996Z,22.95
2018-12-18T11:32:05.529Z,21.57
2018-12-18T11:34:39.287Z,23.90
2018-12-18T11:37:12.883Z,26.80
2018-12-18T11:39:46.479Z,24.43
2018-12-18T11:42:20.063Z,24.20
2018-12-18T11:44:53.494Z,23.92
2018-12-18T11:47:26.922Z,24.43
2018-12-18T11:50:00.576Z,24.77
2018-12-18T11:52:34.107Z,26.87
2018-12-18T11:55:07.927Z,23.42
2018-12-18T11:57:41.412Z,24.35
2018-12-18T12:00:16.561Z,23.47
2018-12-18T12:02:49.972Z,24.15
2018-12-18T12:05:25.642Z,24.05
2018-12-18T12:07:59.084Z,25.15
2018-12-18T12:10:32.586Z,25.02
2018-12-18T12:13:05.973Z,24.43
2018-12-18T12:15:39.381Z,24.43
2018-12-18T12:18:12.683Z,22.25
2018-12-18T12:20:46.049Z,22.45
2018-12-18T12:23:20.067Z,20.52
2018-12-18T12:25:53.522Z,21.20
2018-12-18T12:28:26.900Z,24.05
2018-12-18T12:31:00.437Z,22.45
2018-12-18T12:33:33.798Z,22.20
2018-12-18T12:36:07.366Z,22.90
2018-12-18T12:38:40.902Z,22.17
2018-12-18T12:41:14.218Z,23.05
2018-12-18T12:43:47.645Z,22.42
2018-12-18T12:46:22.368Z,21.93
2018-12-18T12:48:55.844Z,19.62
2018-12-18T12:51:29.327Z,20.05
2018-12-18T12:54:02.620Z,20.23
2018-12-18T12:56:36.071Z,20.85
2018-12-18T12:59:09.532Z,20.80
2018-12-18T13:01:42.899Z,20.90
2018-12-18T13:04:16.187Z,18.73
2018-12-18T13:06:49.821Z,18.50
2018-12-18T13:09:23.310Z,16.75
2018-12-18T13:11:56.744Z,15.72
2018-12-18T13:14:30.138Z,17.55
2018-12-18T13:17:03.834Z,15.75
2018-12-18T13:19:37.522Z,17.02
2018-12-18T13:22:11.090Z,14.60
2018-12-18T13:24:44.635Z,15.32
2018-12-18T13:27:18.222Z,16.30
2018-12-18T13:29:51.869Z,16.57
2018-12-18T13:32:25.352Z,15.65
2018-12-18T13:34:59.295Z,17.00
2018-12-18T13:37:32.863Z,15.43
2018-12-18T13:40:06.331Z,16.07
2018-12-18T13:42:39.727Z,15.03
2018-12-18T13:45:13.056Z,14.45
2018-12-18T13:47:46.622Z,13.93
2018-12-18T13:50:20.206Z,14.47
2018-12-18T13:52:53.602Z,14.00
2018-12-18T13:55:27.035Z,13.98
2018-12-18T13:58:00.534Z,12.98
2018-12-18T14:00:33.972Z,14.13
2018-12-18T14:03:07.413Z,11.80
2018-12-18T14:05:40.651Z,10.88
2018-12-18T14:08:14.176Z,10.53
2018-12-18T14:10:47.794Z,10.70
2018-12-18T14:13:21.534Z,10.08
2018-12-18T14:15:54.905Z,9.58
2018-12-18T14:18:28.288Z,9.65
2018-12-18T14:21:01.794Z,9.38
2018-12-18T14:23:35.346Z,11.53
2018-12-18T14:26:08.710Z,10.05
2018-12-18T14:28:42.332Z,10.50
2018-12-18T14:31:15.749Z,10.50
2018-12-18T14:33:49.236Z,11.22
2018-12-18T14:36:22.877Z,10.78
2018-12-18T14:38:56.320Z,11.70
2018-12-18T14:41:29.651Z,11.05
2018-12-18T14:44:03.271Z,11.15
2018-12-18T14:46:36.770Z,11.00
2018-12-18T14:49:10.113Z,11.88
2018-12-18T14:51:43.357Z,10.35
2018-12-18T14:54:17.058Z,11.88
2018-12-18T14:56:50.514Z,12.28
2018-12-18T14:59:24.640Z,10.58
2018-12-18T15:01:58.329Z,11.48
2018-12-18T15:04:31.840Z,12.88
2018-12-18T15:07:06.462Z,11.38
2018-12-18T15:09:39.937Z,11.95
2018-12-18T15:12:14.138Z,12.20
2018-12-18T15:14:47.551Z,12.95
2018-12-18T15:17:21.309Z,12.93
2018-12-18T15:19:54.700Z,13.03
2018-12-18T15:22:28.229Z,13.68
2018-12-18T15:25:01.822Z,12.13
2018-12-18T15:27:35.698Z,11.65
2018-12-18T15:30:09.834Z,11.55
2018-12-18T15:32:43.521Z,10.98
2018-12-18T15:35:17.152Z,10.45
2018-12-18T15:37:51.475Z,9.53
2018-12-18T15:40:24.958Z,10.10
2018-12-18T15:42:58.511Z,8.35
2018-12-18T15:45:32.005Z,9.23
2018-12-18T15:48:05.301Z,9.80
2018-12-18T15:50:38.942Z,8.20
2018-12-18T15:53:12.554Z,9.55
2018-12-18T15:55:46.010Z,9.00
2018-12-18T15:58:19.764Z,9.53
2018-12-18T16:00:53.288Z,8.55
2018-12-18T16:03:26.647Z,9.38
2018-12-18T16:06:00.120Z,9.25
2018-12-18T16:08:33.314Z,9.65
2018-12-18T16:11:06.751Z,9.65
2018-12-18T16:13:40.235Z,10.45
2018-12-18T16:16:15.141Z,10.50
2018-12-18T16:18:49.402Z,10.63
2018-12-18T16:21:22.755Z,9.15
2018-12-18T16:23:56.253Z,8.50
2018-12-18T16:26:29.607Z,9.58
2018-12-18T16:29:04.122Z,8.35
2018-12-18T16:31:37.706Z,9.08
2018-12-18T16:34:11.195Z,9.50
2018-12-18T16:36:44.749Z,8.83
2018-12-18T16:39:18.346Z,9.35
2018-12-18T16:41:51.804Z,8.55
2018-12-18T16:44:25.266Z,8.10
2018-12-18T16:46:58.724Z,8.20
2018-12-18T16:49:32.069Z,8.28
2018-12-18T16:52:05.768Z,8.40
2018-12-18T16:54:39.261Z,8.15
2018-12-18T16:57:13.368Z,8.50
2018-12-18T16:59:47.089Z,7.97
2018-12-18T17:02:20.951Z,9.20
2018-12-18T17:04:54.513Z,9.30
2018-12-18T17:07:29.701Z,8.38
2018-12-18T17:10:04.123Z,8.63
2018-12-18T17:12:39.660Z,8.70
2018-12-18T17:15:13.177Z,7.47
2018-12-18T17:17:46.937Z,8.85
2018-12-18T17:20:20.264Z,7.83
2018-12-18T17:22:54.074Z,7.70
2018-12-18T17:25:27.434Z,8.78
2018-12-18T17:28:00.983Z,11.68
2018-12-18T17:30:34.794Z,10.25
2018-12-18T17:33:08.391Z,9.65
2018-12-18T17:35:42.141Z,10.13
2018-12-18T17:38:15.927Z,11.12
2018-12-18T17:40:49.574Z,8.78
2018-12-18T17:43:23.454Z,8.18
2018-12-18T17:45:56.917Z,9.63
2018-12-18T17:48:30.339Z,9.83
2018-12-18T17:51:04.025Z,8.30
2018-12-18T17:53:37.471Z,9.55
2018-12-18T17:56:10.957Z,8.43
2018-12-18T17:58:44.366Z,8.93
2018-12-18T18:01:24.998Z,8.68
2018-12-18T18:03:58.678Z,9.35
2018-12-18T18:06:32.133Z,7.95
2018-12-18T18:09:07.884Z,7.65
2018-12-18T18:11:41.282Z,8.50
2018-12-18T18:14:14.558Z,8.90
2018-12-18T18:16:47.915Z,8.75
2018-12-18T18:19:21.419Z,8.90
2018-12-18T18:21:54.881Z,8.28
2018-12-18T18:24:28.403Z,7.47
2018-12-18T18:27:01.919Z,8.43
2018-12-18T18:29:35.333Z,8.85
2018-12-18T18:32:08.535Z,9.23
2018-12-18T18:34:42.702Z,8.70
2018-12-18T18:37:16.015Z,8.03
2018-12-18T18:39:49.362Z,8.40
2018-12-18T18:42:22.634Z,8.35
2018-12-18T18:44:56.095Z,7.55
2018-12-18T18:47:29.738Z,7.72
2018-12-18T18:50:04.797Z,7.55
2018-12-18T18:52:38.213Z,8.40
2018-12-18T18:55:11.681Z,7.15
2018-12-18T18:57:45.059Z,7.90
2018-12-18T19:00:18.791Z,7.35
2018-12-18T19:02:52.906Z,7.78
2018-12-18T19:05:26.439Z,8.40
2018-12-18T19:07:59.874Z,8.93
2018-12-18T19:10:33.317Z,9.83
2018-12-18T19:13:06.804Z,9.50
2018-12-18T19:15:40.429Z,9.80
2018-12-18T19:18:13.765Z,9.77
2018-12-18T19:20:47.427Z,9.25
2018-12-18T19:23:20.967Z,9.53
2018-12-18T19:25:54.402Z,9.28
2018-12-18T19:28:28.027Z,10.07
2018-12-18T19:31:01.578Z,9.13
2018-12-18T19:33:36.982Z,9.47
2018-12-18T19:36:10.859Z,8.15
2018-12-18T19:38:44.311Z,8.17
2018-12-18T19:41:17.858Z,7.90
2018-12-18T19:43:51.528Z,8.50
2018-12-18T19:46:25.016Z,8.28
2018-12-18T19:48:58.412Z,9.20
2018-12-18T19:51:31.840Z,8.57
2018-12-18T19:54:05.409Z,8.63
2018-12-18T19:56:39.090Z,9.37
2018-12-18T19:59:12.462Z,9.47
2018-12-18T20:01:46.041Z,9.40
2018-12-18T20:04:19.456Z,8.80
2018-12-18T20:06:53.152Z,8.83
2018-12-18T20:09:26.728Z,7.62
2018-12-18T20:12:00.111Z,8.83
2018-12-18T20:14:33.691Z,8.38
2018-12-18T20:17:07.578Z,8.87
2018-12-18T20:19:41.607Z,8.67
2018-12-18T20:22:15.540Z,8.15
2018-12-18T20:24:48.911Z,8.43
2018-12-18T20:27:22.587Z,8.87
2018-12-18T20:29:56.321Z,8.55
2018-12-18T20:32:29.791Z,8.97
2018-12-18T20:35:03.553Z,8.75
2018-12-18T20:37:38.445Z,9.60
2018-12-18T20:40:11.957Z,9.50
2018-12-18T20:42:52.075Z,9.20
2018-12-18T20:45:25.729Z,9.20
2018-12-18T20:47:59.021Z,9.83
2018-12-18T20:50:37.553Z,10.17
2018-12-18T20:53:12.778Z,9.95
2018-12-18T20:55:46.466Z,9.87
2018-12-18T20:58:20.189Z,11.00
2018-12-18T21:03:32.647Z,10.67
2018-12-18T21:06:06.359Z,12.53
2018-12-18T21:08:39.906Z,11.55
2018-12-18T21:11:13.379Z,11.50
2018-12-18T21:13:46.949Z,11.53
2018-12-18T21:16:20.581Z,10.60
2018-12-18T21:18:53.977Z,11.10
2018-12-18T21:21:27.516Z,11.50
2018-12-18T21:24:08.108Z,10.70
2018-12-18T21:26:41.850Z,11.07
2018-12-18T21:29:15.493Z,10.32
2018-12-18T21:31:49.208Z,10.93
2018-12-18T21:34:23.034Z,11.57
2018-12-18T21:36:56.580Z,11.17
2018-12-18T21:39:30.161Z,11.90
2018-12-18T21:42:03.844Z,11.30
2018-12-18T21:44:37.548Z,11.23
2018-12-18T21:47:11.045Z,11.37
2018-12-18T21:49:44.695Z,11.07
2018-12-18T21:52:18.368Z,10.97
2018-12-18T21:54:51.677Z,11.20
2018-12-18T21:57:25.019Z,10.57
2018-12-18T21:59:58.497Z,11.10
2018-12-18T22:02:31.849Z,10.20
2018-12-18T22:05:06.572Z,10.03
2018-12-18T22:07:40.131Z,11.23
2018-12-18T22:10:13.749Z,10.53
2018-12-18T22:12:47.171Z,10.30
2018-12-18T22:15:20.593Z,10.27
2018-12-18T22:17:54.082Z,10.97
2018-12-18T22:20:27.401Z,11.00
2018-12-18T22:23:01.035Z,11.30
2018-12-18T22:25:34.323Z,10.63
2018-12-18T22:28:08.102Z,12.27
2018-12-18T22:30:41.437Z,10.80
2018-12-18T22:33:15.065Z,11.20
2018-12-18T22:35:48.584Z,9.97
2018-12-18T22:38:22.079Z,10.13
2018-12-18T22:40:56.805Z,9.40
2018-12-18T22:43:30.371Z,10.90
2018-12-18T22:46:03.946Z,11.10
2018-12-18T22:48:37.491Z,10.80
2018-12-18T22:51:11.069Z,10.50
2018-12-18T22:53:44.445Z,10.83
2018-12-18T22:56:17.932Z,10.20
2018-12-18T22:58:51.401Z,9.63
2018-12-18T23:01:30.699Z,10.37
2018-12-18T23:04:04.323Z,10.60
2018-12-18T23:06:37.574Z,10.03
2018-12-18T23:09:15.305Z,10.17
2018-12-18T23:11:48.736Z,10.77
2018-12-18T23:14:22.094Z,10.47
2018-12-18T23:16:55.573Z,10.30
2018-12-18T23:19:29.207Z,10.37
2018-12-18T23:22:02.902Z,10.50
2018-12-18T23:24:36.399Z,10.63
2018-12-18T23:27:10.933Z,11.17
2018-12-18T23:29:44.854Z,10.90
2018-12-18T23:32:18.555Z,10.98
2018-12-18T23:34:52.198Z,10.93
2018-12-18T23:37:25.733Z,11.83
2018-12-18T23:39:59.104Z,11.35
2018-12-18T23:42:32.650Z,11.47
2018-12-18T23:45:06.396Z,12.17
2018-12-18T23:47:40.047Z,11.93
2018-12-18T23:50:13.689Z,11.03
2018-12-18T23:52:47.041Z,11.63
2018-12-18T23:55:20.400Z,11.87
2018-12-18T23:57:53.703Z,11.93
